CDPK1: Cedar Creek Nr Cedar Point, KS

Data processed at Tue May 21 2019 23:50


All information presented herein is the property of the government of the United States of America and may be revised or deleted at any time without prior notice.
Dissemination of this information without the expressed written consent of the Public Affairs Office, Tulsa District U.S. Army Corps of Engineers is strictly prohibited.
These data are gathered electronically and, as presented, have not undergone any form of quality control. These data are not guaranteed to be valid or correct.
Go to home page.
Go to station list.
Go to home page.

Downstream station:


Previous Day
Next Day
Current Day
    
SHEF ID:       CDPK1     CEDAR C NR CEDAR POINT, KS
STATION TYPE:  
Regulating: Stage =    13.00, Flow =     4281

               PRECIP     STAGE  RIV-FLOW  BAT-LOAD
                   in        ft       cfs      volt
              Ccp-Rev   Ccp-Rev   Ccp-Rev   Ccp-Rev
(US/Central)
05/21 00:00      0.02     17.28      7933     12.24
05/21 01:00      0.01     17.19      7846     12.24
05/21 02:00      0.02     16.78      7455     12.24
05/21 03:00      0.01     16.14      6862     12.24
05/21 04:00      0.00     15.13      5973     12.24
05/21 05:00      0.29     13.69      4801     12.24
05/21 06:00      0.35     12.38      3836     12.24
05/21 07:00      0.41     12.16      3684     12.24
05/21 08:00      0.11     13.24      4459     12.24
05/21 09:00      0.08     14.74      5644     12.24
05/21 10:00      0.02     15.79      6548     12.24
05/21 11:00      0.01     16.58      7267     12.48
05/21 12:00      0.00     17.14      7798     12.42
05/21 13:00      0.00     17.31      7962     12.54
05/21 14:00      ----      ----      ----      ----
05/21 15:00      ----     16.73      7408     12.83
05/21 16:00      0.00     15.99      6727     13.18
05/21 17:00      0.02     14.70      5611     13.18
05/21 18:00      0.01     12.68      4049     13.12
05/21 19:00      0.00     10.53      2642     12.54
05/21 20:00      0.00      8.99      1804     12.54
05/21 21:00      0.00      8.14      1403     12.48
05/21 22:00      0.00      7.64      1189     12.42
05/21 23:00      0.00      7.28      1030     12.42